Time;durP1;ratioP1;P1;durP2;ratioP2;P2;SDS_P1;SDS_P2;PMS_P1;PMS_P2;Temp;Humidity;BMP_temperature;BMP_pressure;BME280_temperature;BME280_humidity;BME280_pressure;Samples;Min_cycle;Max_cycle;Signal;HPM_P1;HPM_P2
2022/12/06 00:01:21;;;;;;;1999.90;999.90;;;2.50;99.90;;;;;;5008337;28;21063;-68
2022/12/06 00:03:52;;;;;;;1999.90;999.90;;;2.60;99.90;;;;;;5007190;28;20548;-69
2022/12/06 00:06:21;;;;;;;1999.90;999.90;;;2.50;99.90;;;;;;5007579;28;20522;-68
2022/12/06 00:08:51;;;;;;;1999.90;999.90;;;2.60;99.90;;;;;;5005144;28;21047;-70
2022/12/06 00:11:21;;;;;;;1999.90;999.90;;;2.70;99.90;;;;;;5008995;28;20550;-68
2022/12/06 00:13:52;;;;;;;1999.90;999.90;;;2.90;99.90;;;;;;5009208;28;20575;-69
2022/12/06 00:16:19;;;;;;;1999.90;999.90;;;2.90;99.90;;;;;;5007352;28;20588;-69
2022/12/06 00:18:46;;;;;;;1999.90;999.90;;;2.80;99.90;;;;;;5009424;28;20456;-67
2022/12/06 00:21:15;;;;;;;1999.90;999.90;;;2.80;99.90;;;;;;5011653;28;20538;-69
2022/12/06 00:23:44;;;;;;;1999.90;999.90;;;2.80;99.90;;;;;;5011258;28;21039;-67
2022/12/06 00:26:12;;;;;;;1999.90;999.90;;;2.80;99.90;;;;;;5010158;28;20491;-68
2022/12/06 00:28:41;;;;;;;1999.90;999.90;;;2.80;99.90;;;;;;5009561;28;20542;-67
2022/12/06 00:31:11;;;;;;;1999.90;999.90;;;2.70;99.90;;;;;;5011077;28;20550;-66
2022/12/06 00:33:38;;;;;;;1999.90;999.90;;;2.70;99.90;;;;;;5011253;28;20535;-67
2022/12/06 00:36:07;;;;;;;1999.90;999.90;;;2.70;99.90;;;;;;5010814;28;20566;-67
2022/12/06 00:38:35;;;;;;;1999.90;999.90;;;2.70;99.90;;;;;;5012158;28;20560;-67
2022/12/06 00:41:04;;;;;;;1999.90;999.90;;;2.70;99.90;;;;;;5011487;28;20839;-67
2022/12/06 00:43:32;;;;;;;1999.90;999.90;;;2.80;99.90;;;;;;5010733;28;20460;-69
2022/12/06 00:46:01;;;;;;;1999.90;999.90;;;2.70;99.90;;;;;;5020600;22;20843;-67
2022/12/06 00:48:28;;;;;;;1999.90;999.90;;;2.60;99.90;;;;;;5038549;28;20537;-68
2022/12/06 00:50:55;;;;;;;1999.90;999.90;;;2.50;99.90;;;;;;5044159;28;21162;-69
2022/12/06 00:53:23;;;;;;;1999.90;999.90;;;2.60;99.90;;;;;;5045741;28;20845;-69
2022/12/06 00:55:50;;;;;;;1999.90;999.90;;;2.70;99.90;;;;;;5043947;28;20545;-69
2022/12/06 00:58:17;;;;;;;1999.90;999.90;;;2.60;99.90;;;;;;5034859;28;21023;-69
2022/12/06 01:00:44;;;;;;;1999.90;999.90;;;2.60;99.90;;;;;;5034846;28;20557;-69
2022/12/06 01:03:12;;;;;;;1999.90;999.90;;;2.60;99.90;;;;;;5042305;28;20547;-69
2022/12/06 01:05:41;;;;;;;1999.90;999.90;;;2.50;99.90;;;;;;5038913;28;20891;-68
2022/12/06 01:08:08;;;;;;;1999.90;999.90;;;2.50;99.90;;;;;;5040927;28;20546;-70
2022/12/06 01:10:35;;;;;;;1999.90;999.90;;;2.50;99.90;;;;;;5043512;28;20542;-71
2022/12/06 01:13:02;;;;;;;1999.90;999.90;;;2.50;99.90;;;;;;5039992;28;20478;-69
2022/12/06 01:15:29;;;;;;;1999.90;999.90;;;2.60;99.90;;;;;;5038636;28;20459;-70
2022/12/06 01:17:55;;;;;;;1999.90;999.90;;;2.60;99.90;;;;;;5027918;28;20494;-70
2022/12/06 01:20:24;;;;;;;1999.90;999.90;;;2.60;99.90;;;;;;5033219;28;20470;-69
2022/12/06 01:22:50;;;;;;;1999.90;999.90;;;2.50;99.90;;;;;;5040731;28;20512;-69
2022/12/06 01:25:17;;;;;;;1999.90;999.90;;;2.50;99.90;;;;;;5041913;28;20467;-68
2022/12/06 01:27:44;;;;;;;1999.90;999.90;;;2.50;99.90;;;;;;5040446;28;20504;-69
2022/12/06 01:30:11;;;;;;;1999.90;999.90;;;2.50;99.90;;;;;;5040039;28;20463;-69
2022/12/06 01:32:38;;;;;;;1999.90;999.90;;;2.50;99.90;;;;;;5031958;28;20458;-68
2022/12/06 01:35:06;;;;;;;1999.90;999.90;;;2.60;99.90;;;;;;5037811;28;20995;-68
2022/12/06 01:37:34;;;;;;;1999.90;999.90;;;2.70;99.90;;;;;;5031864;28;20479;-69
2022/12/06 01:40:01;;;;;;;1999.90;999.90;;;2.60;99.90;;;;;;5030020;28;20994;-69
2022/12/06 01:42:28;;;;;;;1999.90;999.90;;;2.70;99.90;;;;;;5043492;28;20977;-70
2022/12/06 01:44:56;;;;;;;1999.90;999.90;;;2.60;99.90;;;;;;5034704;28;20840;-69
2022/12/06 01:47:26;;;;;;;1999.90;999.90;;;2.60;99.90;;;;;;5041934;28;20490;-69
2022/12/06 01:49:57;;;;;;;1999.90;999.90;;;2.60;99.90;;;;;;5038438;28;20542;-69
2022/12/06 01:52:28;;;;;;;1999.90;999.90;;;2.70;99.90;;;;;;5042606;28;20496;-70
2022/12/06 01:54:58;;;;;;;1999.90;999.90;;;2.80;99.90;;;;;;5033657;28;20483;-69
2022/12/06 01:57:25;;;;;;;1999.90;999.90;;;2.70;99.90;;;;;;5035072;28;20502;-69
2022/12/06 01:59:52;;;;;;;1999.90;999.90;;;2.80;99.90;;;;;;5029989;28;20562;-70
2022/12/06 02:02:19;;;;;;;1999.90;999.90;;;2.70;99.90;;;;;;5055905;28;20457;-70
2022/12/06 02:04:46;;;;;;;1999.90;999.90;;;2.70;99.90;;;;;;5057532;28;20465;-69
2022/12/06 02:07:14;;;;;;;1999.90;999.90;;;2.80;99.90;;;;;;5050171;28;20479;-69
2022/12/06 02:09:41;;;;;;;1999.90;999.90;;;2.80;99.90;;;;;;5054037;28;20459;-69
2022/12/06 02:12:14;;;;;;;1999.90;999.90;;;2.80;99.90;;;;;;5058356;28;20461;-69
2022/12/06 02:14:44;;;;;;;1999.90;999.90;;;2.80;99.90;;;;;;5046535;28;20481;-69
2022/12/06 02:17:21;;;;;;;1999.90;999.90;;;2.80;99.90;;;;;;5038067;28;20475;-69
2022/12/06 02:20:10;;;;;;;1999.90;999.90;;;2.70;99.90;;;;;;5029412;28;20459;-68
2022/12/06 02:22:53;;;;;;;1999.90;999.90;;;2.70;99.90;;;;;;5032097;28;20471;-69
2022/12/06 02:25:54;;;;;;;1999.90;999.90;;;2.60;99.90;;;;;;5028030;28;20459;-69
2022/12/06 02:28:58;;;;;;;1999.90;999.90;;;2.50;99.90;;;;;;5027705;28;20473;-68
2022/12/06 02:31:31;;;;;;;1999.90;999.90;;;2.40;99.90;;;;;;5028371;28;20498;-68
2022/12/06 02:34:04;;;;;;;1999.90;999.90;;;2.40;99.90;;;;;;5029571;28;20490;-69
2022/12/06 02:36:38;;;;;;;1999.90;999.90;;;2.70;99.90;;;;;;5025348;28;20475;-71
2022/12/06 02:39:11;;;;;;;1999.90;999.90;;;2.60;99.90;;;;;;5023816;28;20451;-69
2022/12/06 02:41:41;;;;;;;1999.90;999.90;;;2.60;99.90;;;;;;5025724;28;20459;-69
2022/12/06 02:44:16;;;;;;;1999.90;999.90;;;2.60;99.90;;;;;;5030157;28;20497;-69
2022/12/06 02:46:45;;;;;;;1999.90;999.90;;;2.70;99.90;;;;;;5027934;28;20493;-68
2022/12/06 02:49:14;;;;;;;1999.90;999.90;;;2.70;99.90;;;;;;5029567;28;20459;-69
2022/12/06 02:51:41;;;;;;;1999.90;999.90;;;2.60;99.90;;;;;;5029566;28;20474;-70
2022/12/06 02:54:10;;;;;;;1999.90;999.90;;;2.70;99.90;;;;;;5030846;28;20483;-70
2022/12/06 02:56:36;;;;;;;1999.90;999.90;;;2.60;99.90;;;;;;5029119;28;20513;-69
2022/12/06 02:59:04;;;;;;;1999.90;999.90;;;2.60;99.90;;;;;;5020000;28;20871;-69
2022/12/06 03:01:32;;;;;;;1999.90;999.90;;;2.60;99.90;;;;;;5029576;28;20491;-69
2022/12/06 03:04:30;;;;;;;1999.90;999.90;;;2.60;99.90;;;;;;5029201;28;20455;-68
2022/12/06 03:07:20;;;;;;;1999.90;999.90;;;2.60;99.90;;;;;;5029252;28;20511;-69
2022/12/06 03:09:58;;;;;;;1999.90;999.90;;;2.70;99.90;;;;;;5029807;28;20494;-67
2022/12/06 03:12:30;;;;;;;1999.90;999.90;;;2.60;99.90;;;;;;5029499;28;20466;-69
2022/12/06 03:15:05;;;;;;;1999.90;999.90;;;2.60;99.90;;;;;;5027851;28;20506;-69
2022/12/06 03:17:40;;;;;;;1999.90;999.90;;;2.60;99.90;;;;;;5016991;28;20482;-69
2022/12/06 03:20:15;;;;;;;1999.90;999.90;;;2.60;99.90;;;;;;5029804;28;20450;-69
2022/12/06 03:22:46;;;;;;;1999.90;999.90;;;2.70;99.90;;;;;;5030431;28;20462;-69
2022/12/06 03:25:14;;;;;;;1999.90;999.90;;;2.70;99.90;;;;;;5028794;28;20459;-67
2022/12/06 03:27:43;;;;;;;1999.90;999.90;;;2.70;99.90;;;;;;5028683;28;20482;-66
2022/12/06 03:30:13;;;;;;;1999.90;999.90;;;2.60;99.90;;;;;;5029445;28;20852;-67
2022/12/06 03:32:44;;;;;;;1999.90;999.90;;;2.70;99.90;;;;;;5029744;28;20959;-67
2022/12/06 03:35:16;;;;;;;1999.90;999.90;;;2.70;99.90;;;;;;5029515;28;20479;-67
2022/12/06 03:37:47;;;;;;;1999.90;999.90;;;2.70;99.90;;;;;;5023874;28;20495;-67
2022/12/06 03:40:19;;;;;;;1999.90;999.90;;;2.80;99.90;;;;;;5020692;28;20462;-67
2022/12/06 03:42:48;;;;;;;1999.90;999.90;;;2.80;99.90;;;;;;5030181;28;20459;-67
2022/12/06 03:45:15;;;;;;;1999.90;999.90;;;2.80;99.90;;;;;;5029484;28;20463;-68
2022/12/06 03:47:50;;;;;;;1999.90;999.90;;;2.80;99.90;;;;;;5030431;28;20495;-69
2022/12/06 03:50:24;;;;;;;1999.90;999.90;;;2.80;99.90;;;;;;5029118;28;20904;-69
2022/12/06 03:52:52;;;;;;;1999.90;999.90;;;3.20;99.90;;;;;;5028153;28;20467;-69
2022/12/06 03:55:19;;;;;;;1999.90;999.90;;;2.70;99.90;;;;;;5019144;28;20494;-69
2022/12/06 03:57:46;;;;;;;1999.90;999.90;;;2.60;99.90;;;;;;5030464;28;20483;-68
2022/12/06 04:00:15;;;;;;;1999.90;999.90;;;2.60;99.90;;;;;;5035558;28;20460;-69
2022/12/06 04:02:42;;;;;;;1999.90;999.90;;;2.60;99.90;;;;;;5033240;28;20459;-69
2022/12/06 04:05:09;;;;;;;1999.90;999.90;;;2.70;99.90;;;;;;5033641;28;20462;-69
2022/12/06 04:07:37;;;;;;;1999.90;999.90;;;2.70;99.90;;;;;;5033884;28;20479;-69
2022/12/06 04:10:05;;;;;;;1999.90;999.90;;;2.70;99.90;;;;;;5032486;28;20786;-69
2022/12/06 04:15:19;;;;;;;1999.90;999.90;;;2.60;99.90;;;;;;5025098;28;20474;-67
2022/12/06 04:23:02;;;;;;;1999.90;999.90;;;2.50;99.90;;;;;;5034470;28;20942;-69
2022/12/06 04:23:19;;;;;;;1999.90;999.90;;;2.50;99.90;;;;;;5032459;28;20514;-69
2022/12/06 04:25:46;;;;;;;1999.90;999.90;;;2.40;99.90;;;;;;5033575;28;20458;-69
2022/12/06 04:39:11;;;;;;;1999.90;999.90;;;2.50;99.90;;;;;;5021086;28;20540;-66
2022/12/06 04:44:21;;;;;;;1999.90;999.90;;;2.50;99.90;;;;;;5034267;28;20446;-65
2022/12/06 04:46:48;;;;;;;1999.90;999.90;;;2.50;99.90;;;;;;5033658;28;20498;-65
2022/12/06 04:49:15;;;;;;;1999.90;999.90;;;2.50;99.90;;;;;;5032414;28;20470;-67
2022/12/06 04:51:42;;;;;;;1999.90;999.90;;;2.50;99.90;;;;;;5034058;28;21042;-65
2022/12/06 04:54:10;;;;;;;1999.90;999.90;;;2.50;99.90;;;;;;5033301;28;20503;-67
2022/12/06 04:56:37;;;;;;;1999.90;999.90;;;2.60;99.90;;;;;;5024583;28;20483;-67
2022/12/06 04:59:04;;;;;;;1999.90;999.90;;;2.60;99.90;;;;;;5021181;28;20467;-67
2022/12/06 05:01:31;;;;;;;1999.90;999.90;;;2.50;99.90;;;;;;5034648;28;20470;-67
2022/12/06 05:03:57;;;;;;;1999.90;999.90;;;2.50;99.90;;;;;;5033388;28;20481;-68
2022/12/06 05:06:24;;;;;;;1999.90;999.90;;;2.50;99.90;;;;;;5033185;28;20501;-67
2022/12/06 05:08:51;;;;;;;1999.90;999.90;;;2.60;99.90;;;;;;5030943;28;20459;-67
2022/12/06 05:11:19;;;;;;;1999.90;999.90;;;2.60;99.90;;;;;;5033126;28;20459;-67
2022/12/06 05:13:46;;;;;;;1999.90;999.90;;;2.60;99.90;;;;;;5032495;28;20466;-70
2022/12/06 05:16:13;;;;;;;1999.90;999.90;;;2.60;99.90;;;;;;5027958;28;20488;-69
2022/12/06 05:18:40;;;;;;;1999.90;999.90;;;2.60;99.90;;;;;;5030229;28;20463;-67
2022/12/06 05:21:08;;;;;;;1999.90;999.90;;;2.60;99.90;;;;;;5031473;28;20490;-67
2022/12/06 05:23:36;;;;;;;1999.90;999.90;;;2.60;99.90;;;;;;5031005;28;20486;-67
2022/12/06 05:26:04;;;;;;;1999.90;999.90;;;2.50;99.90;;;;;;5030438;28;20490;-67
2022/12/06 05:28:33;;;;;;;1999.90;999.90;;;2.50;99.90;;;;;;5029573;28;20467;-68
2022/12/06 05:31:01;;;;;;;1999.90;999.90;;;2.50;99.90;;;;;;5029527;28;20578;-67
2022/12/06 05:33:28;;;;;;;1999.90;999.90;;;2.40;99.90;;;;;;5030502;28;20459;-68
2022/12/06 05:35:55;;;;;;;1999.90;999.90;;;2.50;99.90;;;;;;5030241;28;20497;-67
2022/12/06 05:38:22;;;;;;;1999.90;999.90;;;2.60;99.90;;;;;;5027694;28;20463;-69
2022/12/06 05:40:49;;;;;;;1999.90;999.90;;;2.50;99.90;;;;;;5028007;28;20467;-69
2022/12/06 05:43:16;;;;;;;1999.90;999.90;;;2.60;99.90;;;;;;5031121;28;20874;-69
2022/12/06 05:45:45;;;;;;;1999.90;999.90;;;2.60;99.90;;;;;;5031060;28;20526;-68
2022/12/06 05:48:11;;;;;;;1999.90;999.90;;;2.70;99.90;;;;;;5031657;28;20467;-68
2022/12/06 05:50:38;;;;;;;1999.90;999.90;;;2.60;99.90;;;;;;5032341;28;20513;-68
2022/12/06 05:53:05;;;;;;;1999.90;999.90;;;2.60;99.90;;;;;;5031588;28;20463;-70
2022/12/06 05:55:32;;;;;;;1999.90;999.90;;;2.60;99.90;;;;;;5031035;28;20483;-69
2022/12/06 05:57:58;;;;;;;1999.90;999.90;;;2.60;99.90;;;;;;5027412;28;20463;-68
2022/12/06 06:00:25;;;;;;;1999.90;999.90;;;2.50;99.90;;;;;;5030428;28;20458;-69
2022/12/06 06:02:54;;;;;;;1999.90;999.90;;;2.60;99.90;;;;;;5031712;28;20471;-69
2022/12/06 06:05:20;;;;;;;1999.90;999.90;;;2.60;99.90;;;;;;5030348;28;20813;-66
2022/12/06 06:07:47;;;;;;;1999.90;999.90;;;2.60;99.90;;;;;;5031614;28;20987;-69
2022/12/06 06:10:14;;;;;;;1999.90;999.90;;;2.60;99.90;;;;;;5030690;28;20471;-68
2022/12/06 06:12:41;;;;;;;1999.90;999.90;;;2.60;99.90;;;;;;5025845;28;20502;-70
2022/12/06 06:15:09;;;;;;;1999.90;999.90;;;2.60;99.90;;;;;;5029487;28;20486;-67
2022/12/06 06:17:35;;;;;;;1999.90;999.90;;;2.60;99.90;;;;;;5024357;28;20514;-69
2022/12/06 06:20:05;;;;;;;1999.90;999.90;;;2.60;99.90;;;;;;5026907;28;20460;-67
2022/12/06 06:22:33;;;;;;;1999.90;999.90;;;2.60;99.90;;;;;;5031398;28;20459;-69
2022/12/06 06:25:00;;;;;;;1999.90;999.90;;;2.60;99.90;;;;;;5029007;28;20543;-69
2022/12/06 06:27:27;;;;;;;1999.90;999.90;;;2.60;99.90;;;;;;5028634;28;20894;-68
2022/12/06 06:29:54;;;;;;;1999.90;999.90;;;2.60;99.90;;;;;;5031759;28;20841;-69
2022/12/06 06:32:20;;;;;;;1999.90;999.90;;;2.60;99.90;;;;;;5024003;28;20463;-68
2022/12/06 06:34:47;;;;;;;1999.90;999.90;;;2.70;99.90;;;;;;5029115;28;20479;-68
2022/12/06 06:37:15;;;;;;;1999.90;999.90;;;2.70;99.90;;;;;;5029337;28;20487;-68
2022/12/06 06:39:42;;;;;;;1999.90;999.90;;;2.70;99.90;;;;;;5024523;28;20458;-69
2022/12/06 06:42:09;;;;;;;1999.90;999.90;;;2.70;99.90;;;;;;5027342;28;20467;-70
2022/12/06 06:44:36;;;;;;;1999.90;999.90;;;2.60;99.90;;;;;;5028600;28;20456;-68
2022/12/06 06:47:03;;;;;;;1999.90;999.90;;;2.70;99.90;;;;;;5027415;28;20491;-69
2022/12/06 06:49:30;;;;;;;1999.90;999.90;;;2.60;99.90;;;;;;5029712;28;20467;-69
2022/12/06 06:51:57;;;;;;;1999.90;999.90;;;2.70;99.90;;;;;;5028792;28;20463;-69
2022/12/06 06:54:26;;;;;;;1999.90;999.90;;;2.60;99.90;;;;;;5028176;28;20462;-69
2022/12/06 06:56:54;;;;;;;1999.90;999.90;;;2.60;99.90;;;;;;5028049;28;20486;-68
2022/12/06 06:59:21;;;;;;;1999.90;999.90;;;2.70;99.90;;;;;;5028534;28;21137;-68
2022/12/06 07:01:48;;;;;;;1999.90;999.90;;;2.80;99.90;;;;;;5022911;28;20459;-69
2022/12/06 07:04:15;;;;;;;1999.90;999.90;;;2.80;99.90;;;;;;5029253;28;20470;-69
2022/12/06 07:06:42;;;;;;;1999.90;999.90;;;2.80;99.90;;;;;;5028570;28;20482;-69
2022/12/06 07:09:10;;;;;;;1999.90;999.90;;;2.80;99.90;;;;;;5029647;28;20466;-69
2022/12/06 07:11:38;;;;;;;1999.90;999.90;;;2.80;99.90;;;;;;5026843;28;20562;-70
2022/12/06 07:14:05;;;;;;;1999.90;999.90;;;2.80;99.90;;;;;;5028057;28;20463;-69
2022/12/06 07:16:31;;;;;;;1999.90;999.90;;;2.90;99.90;;;;;;5029287;28;20581;-69
2022/12/06 07:18:59;;;;;;;1999.90;999.90;;;2.90;99.90;;;;;;5025191;28;20498;-68
2022/12/06 07:21:26;;;;;;;1999.90;999.90;;;2.90;99.90;;;;;;5032090;28;20458;-69
2022/12/06 07:23:52;;;;;;;1999.90;999.90;;;2.90;99.90;;;;;;5027597;28;20461;-69
2022/12/06 07:26:21;;;;;;;1999.90;999.90;;;2.90;99.90;;;;;;5026612;28;20489;-69
2022/12/06 07:28:50;;;;;;;1999.90;999.90;;;2.80;99.90;;;;;;5024224;28;20463;-69
2022/12/06 07:31:19;;;;;;;1999.90;999.90;;;2.90;99.90;;;;;;5034880;28;20552;-68
2022/12/06 07:33:46;;;;;;;1999.90;999.90;;;2.80;99.90;;;;;;5034266;28;20465;-69
2022/12/06 07:36:14;;;;;;;1999.90;999.90;;;2.90;99.90;;;;;;5032258;28;20873;-68
2022/12/06 07:38:42;;;;;;;1999.90;999.90;;;2.90;99.90;;;;;;5032704;28;20463;-69
2022/12/06 07:46:39;;;;;;;1999.90;999.90;;;3.00;99.90;;;;;;5029480;28;21000;-68
2022/12/06 07:49:06;;;;;;;1999.90;999.90;;;2.90;99.90;;;;;;5029507;28;20458;-67
2022/12/06 07:51:33;;;;;;;1999.90;999.90;;;2.90;99.90;;;;;;5027656;28;20451;-67
2022/12/06 07:54:00;;;;;;;1999.90;999.90;;;2.90;99.90;;;;;;5032069;28;20459;-68
2022/12/06 07:56:27;;;;;;;1999.90;999.90;;;3.00;99.90;;;;;;5027817;28;20498;-68
2022/12/06 07:58:55;;;;;;;1999.90;999.90;;;3.00;99.90;;;;;;5029432;28;20455;-69
2022/12/06 08:01:22;;;;;;;1999.90;999.90;;;3.00;99.90;;;;;;5034760;28;20449;-69
2022/12/06 08:03:49;;;;;;;1999.90;999.90;;;3.10;99.90;;;;;;5025992;28;20459;-68
2022/12/06 08:06:16;;;;;;;1999.90;999.90;;;3.10;99.90;;;;;;5029209;28;20470;-68
2022/12/06 08:08:42;;;;;;;1999.90;999.90;;;3.10;99.90;;;;;;5034682;28;20443;-68
2022/12/06 08:11:09;;;;;;;1999.90;999.90;;;3.00;99.90;;;;;;5032120;28;20970;-69
2022/12/06 08:13:37;;;;;;;1999.90;999.90;;;3.00;99.90;;;;;;5034923;28;20451;-68
2022/12/06 08:16:07;;;;;;;1999.90;999.90;;;3.00;99.90;;;;;;5042805;28;20489;-68
2022/12/06 08:18:33;;;;;;;1999.90;999.90;;;3.10;99.90;;;;;;5047649;28;20863;-69
2022/12/06 08:21:00;;;;;;;1999.90;999.90;;;3.00;99.90;;;;;;5042036;28;20461;-69
2022/12/06 08:23:27;;;;;;;1999.90;999.90;;;3.00;99.90;;;;;;5036602;28;20478;-68
2022/12/06 08:25:57;;;;;;;1999.90;999.90;;;3.00;99.90;;;;;;5029517;28;20459;-69
2022/12/06 08:28:24;;;;;;;1999.90;999.90;;;3.10;99.90;;;;;;5027885;28;20925;-69
2022/12/06 08:30:51;;;;;;;1999.90;999.90;;;3.10;99.90;;;;;;5036138;28;20459;-69
2022/12/06 08:33:20;;;;;;;1999.90;999.90;;;3.00;99.90;;;;;;5026741;28;20839;-69
2022/12/06 08:35:47;;;;;;;1999.90;999.90;;;3.00;99.90;;;;;;5031408;28;20518;-69
2022/12/06 08:38:14;;;;;;;1999.90;999.90;;;3.00;99.90;;;;;;5030550;28;20792;-69
2022/12/06 08:40:41;;;;;;;1999.90;999.90;;;3.00;99.90;;;;;;5032294;28;20450;-69
2022/12/06 08:43:08;;;;;;;1999.90;999.90;;;3.00;99.90;;;;;;5033534;28;20513;-69
2022/12/06 08:45:35;;;;;;;1999.90;999.90;;;3.00;99.90;;;;;;5031911;28;20443;-68
2022/12/06 08:48:02;;;;;;;1999.90;999.90;;;3.00;99.90;;;;;;5026921;28;20943;-69
2022/12/06 08:50:30;;;;;;;1999.90;999.90;;;3.00;99.90;;;;;;5030543;28;20459;-69
2022/12/06 08:52:57;;;;;;;1999.90;999.90;;;3.00;99.90;;;;;;5028362;28;20459;-69
2022/12/06 08:55:24;;;;;;;1999.90;999.90;;;3.10;99.90;;;;;;5029615;28;20475;-68
2022/12/06 08:57:50;;;;;;;1999.90;999.90;;;3.10;99.90;;;;;;5030401;28;20480;-67
2022/12/06 09:00:18;;;;;;;1999.90;999.90;;;3.10;99.90;;;;;;5031373;28;20459;-68
2022/12/06 09:02:44;;;;;;;1999.90;999.90;;;3.00;99.90;;;;;;5032328;28;20459;-67
2022/12/06 09:05:11;;;;;;;1999.90;999.90;;;3.00;99.90;;;;;;5031414;28;20456;-68
2022/12/06 09:07:39;;;;;;;1999.90;999.90;;;3.00;99.90;;;;;;5031229;28;20475;-69
2022/12/06 09:10:07;;;;;;;1999.90;999.90;;;3.00;99.90;;;;;;5029920;28;20473;-69
2022/12/06 09:12:34;;;;;;;1999.90;999.90;;;3.00;99.90;;;;;;5041743;28;20446;-68
2022/12/06 09:15:01;;;;;;;1999.90;999.90;;;3.00;99.90;;;;;;5038269;28;20466;-68
2022/12/06 09:17:27;;;;;;;1999.90;999.90;;;3.10;99.90;;;;;;5031594;28;20490;-69
2022/12/06 09:19:54;;;;;;;1999.90;999.90;;;3.00;99.90;;;;;;5033221;28;20471;-68
2022/12/06 09:22:21;;;;;;;1999.90;999.90;;;3.00;99.90;;;;;;5037439;28;20473;-69
2022/12/06 09:24:49;;;;;;;1999.90;999.90;;;3.10;99.90;;;;;;5023754;28;20456;-69
2022/12/06 09:27:17;;;;;;;1999.90;999.90;;;3.00;99.90;;;;;;5021760;28;20487;-69
2022/12/06 09:29:43;;;;;;;1999.90;999.90;;;3.00;99.90;;;;;;5029244;28;20466;-68
2022/12/06 09:32:10;;;;;;;1999.90;999.90;;;3.10;99.90;;;;;;5032847;28;20464;-68
2022/12/06 09:34:37;;;;;;;1999.90;999.90;;;3.10;99.90;;;;;;5030419;28;20470;-69
2022/12/06 09:37:10;;;;;;;1999.90;999.90;;;3.10;99.90;;;;;;5026487;28;20491;-68
2022/12/06 09:39:41;;;;;;;1999.90;999.90;;;3.10;99.90;;;;;;5027150;28;20517;-68
2022/12/06 09:42:43;;;;;;;1999.90;999.90;;;3.00;99.90;;;;;;5026827;28;20463;-69
2022/12/06 09:45:31;;;;;;;1999.90;999.90;;;3.00;99.90;;;;;;5024693;28;20459;-69
2022/12/06 09:48:23;;;;;;;1999.90;999.90;;;3.00;99.90;;;;;;5032598;28;20483;-69
2022/12/06 09:51:02;;;;;;;1999.90;999.90;;;3.00;99.90;;;;;;5028194;28;20472;-69
2022/12/06 09:53:39;;;;;;;1999.90;999.90;;;3.10;99.90;;;;;;5030521;28;20450;-69
2022/12/06 09:56:12;;;;;;;1999.90;999.90;;;3.10;99.90;;;;;;5027936;28;20482;-68
2022/12/06 09:58:51;;;;;;;1999.90;999.90;;;3.20;99.90;;;;;;5028533;28;21161;-68
2022/12/06 10:01:26;;;;;;;1999.90;999.90;;;3.20;99.90;;;;;;5029176;28;20459;-69
2022/12/06 10:04:08;;;;;;;1999.90;999.90;;;3.20;99.90;;;;;;5031170;28;20461;-70
2022/12/06 10:06:43;;;;;;;1999.90;999.90;;;3.20;99.90;;;;;;5030292;28;20471;-69
2022/12/06 10:09:23;;;;;;;1999.90;999.90;;;3.20;99.90;;;;;;5032453;28;20465;-68
2022/12/06 10:12:06;;;;;;;1999.90;999.90;;;3.20;99.90;;;;;;5029953;28;20978;-69
2022/12/06 10:14:52;;;;;;;1999.90;999.90;;;3.30;99.90;;;;;;5028650;28;20462;-67
2022/12/06 10:17:28;;;;;;;1999.90;999.90;;;3.20;99.90;;;;;;5031340;28;20498;-69
2022/12/06 10:20:03;;;;;;;1999.90;999.90;;;3.30;99.90;;;;;;5037913;28;20462;-68
2022/12/06 10:22:44;;;;;;;1999.90;999.90;;;3.30;99.90;;;;;;5037059;28;20453;-68
2022/12/06 10:25:17;;;;;;;1999.90;999.90;;;3.30;99.90;;;;;;5032376;28;20466;-69
2022/12/06 10:27:49;;;;;;;1999.90;999.90;;;3.30;99.90;;;;;;5030458;28;20487;-69
2022/12/06 10:30:19;;;;;;;1999.90;999.90;;;3.30;99.90;;;;;;5029571;28;20467;-69
2022/12/06 10:32:53;;;;;;;1999.90;999.90;;;3.30;99.90;;;;;;5035743;28;20459;-69
2022/12/06 10:35:30;;;;;;;1999.90;999.90;;;3.30;99.90;;;;;;5031869;28;20462;-69
2022/12/06 10:38:09;;;;;;;1999.90;999.90;;;3.40;99.90;;;;;;5029334;28;20491;-69
2022/12/06 10:40:43;;;;;;;1999.90;999.90;;;3.40;99.90;;;;;;5031930;28;21080;-69
2022/12/06 10:43:18;;;;;;;1999.90;999.90;;;3.30;99.90;;;;;;5028890;28;20459;-68
2022/12/06 10:48:40;;;;;;;1999.90;999.90;;;3.40;99.90;;;;;;5033908;28;20450;-69
2022/12/06 10:51:12;;;;;;;1999.90;999.90;;;3.50;99.90;;;;;;5035947;28;20463;-71
2022/12/06 10:53:44;;;;;;;1999.90;999.90;;;3.50;99.90;;;;;;5042961;28;20447;-69
2022/12/06 10:56:16;;;;;;;1999.90;999.90;;;3.50;99.90;;;;;;5043198;28;20487;-69
2022/12/06 10:58:48;;;;;;;1999.90;999.90;;;3.50;99.90;;;;;;5043814;28;20459;-70
2022/12/06 11:01:19;;;;;;;1999.90;999.90;;;3.50;99.90;;;;;;5050261;28;20443;-70
2022/12/06 11:03:55;;;;;;;1999.90;999.90;;;3.60;99.90;;;;;;5047909;28;20518;-68
2022/12/06 11:06:30;;;;;;;1999.90;999.90;;;3.60;99.90;;;;;;5039097;28;20857;-70
2022/12/06 11:09:01;;;;;;;1999.90;999.90;;;3.70;99.90;;;;;;5026127;28;20502;-69
2022/12/06 11:11:32;;;;;;;1999.90;999.90;;;3.80;99.90;;;;;;5025828;28;20459;-69
2022/12/06 11:14:03;;;;;;;1999.90;999.90;;;3.90;99.90;;;;;;5020365;28;20557;-69
2022/12/06 11:16:36;;;;;;;1999.90;999.90;;;4.10;99.90;;;;;;5024844;28;20487;-68
2022/12/06 11:19:17;;;;;;;1999.90;999.90;;;3.80;99.90;;;;;;5028681;28;20463;-65
2022/12/06 11:21:48;;;;;;;1999.90;999.90;;;3.90;99.90;;;;;;5043570;28;20438;-69
2022/12/06 11:24:21;;;;;;;1999.90;999.90;;;3.80;99.90;;;;;;5051683;28;20450;-69
2022/12/06 11:26:52;;;;;;;1999.90;999.90;;;3.90;99.90;;;;;;5026233;28;20475;-68
2022/12/06 11:29:19;;;;;;;1999.90;999.90;;;4.00;99.90;;;;;;5023843;28;20464;-67
2022/12/06 11:31:50;;;;;;;1999.90;999.90;;;4.00;99.90;;;;;;5027789;28;20471;-66
2022/12/06 11:34:22;;;;;;;1999.90;999.90;;;4.10;99.90;;;;;;5031595;28;20456;-67
2022/12/06 11:36:51;;;;;;;1999.90;999.90;;;4.10;99.90;;;;;;5028376;28;20578;-67
2022/12/06 11:39:18;;;;;;;1999.90;999.90;;;4.10;99.90;;;;;;5031162;28;20470;-67
2022/12/06 11:41:49;;;;;;;1999.90;999.90;;;4.30;99.90;;;;;;5025017;28;20482;-64
2022/12/06 11:44:20;;;;;;;1999.90;999.90;;;4.20;99.90;;;;;;5027975;28;20467;-68
2022/12/06 11:46:54;;;;;;;1999.90;999.90;;;4.20;99.90;;;;;;5029511;28;20482;-67
2022/12/06 11:49:27;;;;;;;1999.90;999.90;;;4.20;99.90;;;;;;5027192;28;20477;-66
2022/12/06 11:51:55;;;;;;;1999.90;999.90;;;4.10;99.90;;;;;;5036767;28;20913;-66
2022/12/06 11:54:26;;;;;;;1999.90;999.90;;;4.10;99.90;;;;;;5039623;28;20989;-64
2022/12/06 11:56:53;;;;;;;1999.90;999.90;;;4.10;99.90;;;;;;5033497;28;20482;-67
2022/12/06 11:59:25;;;;;;;1999.90;999.90;;;4.00;99.90;;;;;;5028726;28;20467;-67
2022/12/06 12:01:55;;;;;;;1999.90;999.90;;;4.00;99.90;;;;;;5027666;28;20458;-68
2022/12/06 12:04:44;;;;;;;1999.90;999.90;;;4.20;99.90;;;;;;5033889;28;20464;-65
2022/12/06 12:07:16;;;;;;;1999.90;999.90;;;3.90;99.90;;;;;;5027570;28;20471;-67
2022/12/06 12:09:50;;;;;;;1999.90;999.90;;;3.80;99.90;;;;;;5041279;28;20446;-65
2022/12/06 12:12:20;;;;;;;1999.90;999.90;;;3.80;99.90;;;;;;5031220;28;20500;-67
2022/12/06 12:14:54;;;;;;;1999.90;999.90;;;3.80;99.90;;;;;;5031010;28;20501;-68
2022/12/06 12:17:28;;;;;;;1999.90;999.90;;;3.90;99.90;;;;;;5034898;28;20486;-67
2022/12/06 12:20:00;;;;;;;1999.90;999.90;;;3.90;99.90;;;;;;5033710;28;20901;-65
2022/12/06 12:22:34;;;;;;;1999.90;999.90;;;3.90;99.90;;;;;;5033074;28;20466;-68
2022/12/06 12:25:02;;;;;;;1999.90;999.90;;;3.90;99.90;;;;;;5030027;28;20470;-68
2022/12/06 12:27:42;;;;;;;1999.90;999.90;;;3.80;99.90;;;;;;5019494;28;20509;-67
2022/12/06 12:30:22;;;;;;;1999.90;999.90;;;3.90;99.90;;;;;;5019775;28;20462;-66
2022/12/06 12:33:06;;;;;;;1999.90;999.90;;;3.80;99.90;;;;;;5032583;28;20463;-65
2022/12/06 12:35:34;;;;;;;1999.90;999.90;;;3.80;99.90;;;;;;5037176;28;20457;-67
2022/12/06 12:38:05;;;;;;;1999.90;999.90;;;3.80;99.90;;;;;;5045878;28;20478;-67
2022/12/06 12:40:36;;;;;;;1999.90;999.90;;;3.80;99.90;;;;;;5037049;28;20463;-67
2022/12/06 12:43:05;;;;;;;1999.90;999.90;;;3.90;99.90;;;;;;5034467;28;20435;-68
2022/12/06 12:45:33;;;;;;;1999.90;999.90;;;3.90;99.90;;;;;;5033555;28;20443;-67
2022/12/06 12:48:02;;;;;;;1999.90;999.90;;;4.00;99.90;;;;;;5035271;28;20467;-66
2022/12/06 12:50:31;;;;;;;1999.90;999.90;;;3.90;99.90;;;;;;5034558;28;20447;-66